createdAt,value
2022-10-09T00:01:18.481Z,66.72
2022-10-09T00:06:23.956Z,66.60
2022-10-09T00:11:27.573Z,66.61
2022-10-09T00:16:29.820Z,66.83
2022-10-09T00:21:33.934Z,66.88
2022-10-09T00:26:35.912Z,66.74
2022-10-09T00:31:38.270Z,66.68
2022-10-09T00:36:40.071Z,66.68
2022-10-09T00:41:41.896Z,66.72
2022-10-09T00:46:48.742Z,66.81
2022-10-09T00:51:52.035Z,66.85
2022-10-09T00:56:54.915Z,66.85
2022-10-09T01:01:56.837Z,66.78
2022-10-09T01:07:18.072Z,66.79
2022-10-09T01:12:25.822Z,66.78
2022-10-09T01:17:36.801Z,66.78
2022-10-09T01:22:56.728Z,66.76
2022-10-09T01:28:00.088Z,66.73
2022-10-09T01:33:03.090Z,66.86
2022-10-09T01:38:06.636Z,66.77
2022-10-09T01:43:08.691Z,66.81
2022-10-09T01:48:16.630Z,66.92
2022-10-09T01:53:19.827Z,66.83
2022-10-09T01:58:44.377Z,66.73
2022-10-09T02:03:49.960Z,67.02
2022-10-09T02:08:54.127Z,66.86
2022-10-09T02:13:56.401Z,67.06
2022-10-09T02:19:08.576Z,67.15
2022-10-09T02:24:15.798Z,67.16
2022-10-09T02:29:17.681Z,67.13
2022-10-09T02:34:20.939Z,67.33
2022-10-09T02:39:22.842Z,67.20
2022-10-09T02:44:25.054Z,67.12
2022-10-09T02:49:27.047Z,67.11
2022-10-09T02:54:28.883Z,67.33
2022-10-09T02:59:32.187Z,67.29
2022-10-09T03:04:34.200Z,67.34
2022-10-09T03:09:36.331Z,67.36
2022-10-09T03:14:38.361Z,67.33
2022-10-09T03:19:40.199Z,67.31
2022-10-09T03:24:42.030Z,67.30
2022-10-09T03:29:43.835Z,67.29
2022-10-09T03:34:45.583Z,67.44
2022-10-09T03:39:47.660Z,67.41
2022-10-09T03:44:49.375Z,67.45
2022-10-09T03:49:51.178Z,67.50
2022-10-09T03:54:56.171Z,67.62
2022-10-09T03:59:58.082Z,67.65
2022-10-09T04:05:00.204Z,67.66
2022-10-09T04:10:02.104Z,67.66
2022-10-09T04:15:04.517Z,67.61
2022-10-09T04:20:06.776Z,67.72
2022-10-09T04:25:09.206Z,67.64
2022-10-09T04:30:11.368Z,67.75
2022-10-09T04:35:13.498Z,67.75
2022-10-09T04:40:15.341Z,67.66
2022-10-09T04:45:17.304Z,67.63
2022-10-09T04:50:19.183Z,67.58
2022-10-09T04:55:32.626Z,67.63
2022-10-09T05:00:35.084Z,67.56
2022-10-09T05:05:37.198Z,67.76
2022-10-09T05:10:38.968Z,67.71
2022-10-09T05:15:40.872Z,67.42
2022-10-09T05:20:42.745Z,67.54
2022-10-09T05:25:44.663Z,67.63
2022-10-09T05:30:46.656Z,67.75
2022-10-09T05:36:05.353Z,67.84
2022-10-09T05:41:10.388Z,67.68
2022-10-09T05:46:16.540Z,67.79
2022-10-09T05:51:21.343Z,67.94
2022-10-09T05:56:31.638Z,67.94
2022-10-09T06:01:38.997Z,68.09
2022-10-09T06:06:41.570Z,68.22
2022-10-09T06:11:43.872Z,68.23
2022-10-09T06:16:46.089Z,68.35
2022-10-09T06:21:48.116Z,68.51
2022-10-09T06:26:50.163Z,68.50
2022-10-09T06:31:52.227Z,68.81
2022-10-09T06:36:54.076Z,68.88
2022-10-09T06:41:55.926Z,68.89
2022-10-09T06:47:04.860Z,68.95
2022-10-09T06:52:06.975Z,68.98
2022-10-09T06:57:08.832Z,69.08
2022-10-09T07:02:10.742Z,69.30
2022-10-09T07:07:12.682Z,69.30
2022-10-09T07:12:14.465Z,69.39
2022-10-09T07:17:16.291Z,69.40
2022-10-09T07:22:18.298Z,69.39
2022-10-09T07:27:20.145Z,69.33
2022-10-09T07:32:21.943Z,69.36
2022-10-09T07:37:23.817Z,69.49
2022-10-09T07:42:25.723Z,69.46
2022-10-09T07:47:27.795Z,69.43
2022-10-09T07:52:29.603Z,69.53
2022-10-09T07:57:31.403Z,69.55
2022-10-09T08:02:33.286Z,69.41
2022-10-09T08:07:35.254Z,69.35
2022-10-09T08:12:37.056Z,69.23
2022-10-09T08:17:39.644Z,69.32
2022-10-09T08:22:41.452Z,69.12
2022-10-09T08:27:43.262Z,69.27
2022-10-09T08:32:45.247Z,69.21
2022-10-09T08:37:47.074Z,69.40
2022-10-09T08:42:58.698Z,69.40
2022-10-09T08:48:19.122Z,69.48
2022-10-09T08:54:10.553Z,69.40
2022-10-09T08:59:12.536Z,69.37
2022-10-09T09:04:14.303Z,69.47
2022-10-09T09:09:38.122Z,69.21
2022-10-09T09:14:55.403Z,69.24
2022-10-09T09:20:14.700Z,69.26
2022-10-09T09:25:26.172Z,69.43
2022-10-09T09:30:34.435Z,69.28
2022-10-09T09:35:48.287Z,69.20
2022-10-09T09:40:52.143Z,69.24
2022-10-09T09:46:01.618Z,68.95
2022-10-09T09:51:30.003Z,68.40
2022-10-09T09:57:10.400Z,68.40
2022-10-09T10:02:20.974Z,67.98
2022-10-09T10:07:34.784Z,68.36
2022-10-09T10:12:42.263Z,68.42
2022-10-09T10:17:44.231Z,68.41
2022-10-09T10:22:54.686Z,68.44
2022-10-09T10:28:03.756Z,68.43
2022-10-09T10:33:31.662Z,68.31
2022-10-09T10:38:43.487Z,68.30
2022-10-09T10:44:17.038Z,68.02
2022-10-09T10:49:21.482Z,68.04
2022-10-09T10:54:46.823Z,67.96
2022-10-09T10:59:54.456Z,68.02
2022-10-09T11:05:27.234Z,67.45
2022-10-09T11:10:57.499Z,67.32
2022-10-09T11:16:02.309Z,67.05
2022-10-09T11:21:22.566Z,67.17
2022-10-09T11:26:57.575Z,66.97
2022-10-09T11:32:32.935Z,66.80
2022-10-09T11:37:39.281Z,67.13
2022-10-09T11:42:41.723Z,66.81
2022-10-09T11:47:55.172Z,66.59
2022-10-09T11:53:20.859Z,66.44
2022-10-09T11:58:25.279Z,66.38
2022-10-09T12:03:33.289Z,66.41
2022-10-09T12:08:36.609Z,66.36
2022-10-09T12:13:42.350Z,66.20
2022-10-09T12:18:47.805Z,66.04
2022-10-09T12:23:51.398Z,66.10
2022-10-09T12:29:00.933Z,65.87
2022-10-09T12:34:13.573Z,65.67
2022-10-09T12:39:23.638Z,65.28
2022-10-09T12:44:32.995Z,65.05
2022-10-09T12:49:35.853Z,65.10
2022-10-09T12:54:43.563Z,65.16
2022-10-09T12:59:46.944Z,65.03
2022-10-09T13:04:58.323Z,64.83
2022-10-09T13:10:04.669Z,64.83
2022-10-09T13:15:33.266Z,64.64
2022-10-09T13:20:35.248Z,64.74
2022-10-09T13:25:40.571Z,64.61
2022-10-09T13:30:42.474Z,64.37
2022-10-09T13:35:44.905Z,63.87
2022-10-09T13:40:47.854Z,63.86
2022-10-09T13:45:50.069Z,63.68
2022-10-09T13:50:52.456Z,63.52
2022-10-09T13:56:00.009Z,63.40
2022-10-09T14:01:03.528Z,63.19
2022-10-09T14:06:05.491Z,62.68
2022-10-09T14:11:07.408Z,62.46
2022-10-09T14:16:11.278Z,62.04
2022-10-09T14:21:15.893Z,61.15
2022-10-09T14:26:17.864Z,60.88
2022-10-09T14:31:20.781Z,60.87
2022-10-09T14:36:22.914Z,60.53
2022-10-09T14:41:24.804Z,60.53
2022-10-09T14:46:29.081Z,60.42
2022-10-09T14:51:36.026Z,60.57
2022-10-09T14:56:39.320Z,60.80
2022-10-09T15:01:41.382Z,60.67
2022-10-09T15:06:43.729Z,60.79
2022-10-09T15:11:45.680Z,60.98
2022-10-09T15:16:47.592Z,60.95
2022-10-09T15:21:49.465Z,60.97
2022-10-09T15:26:51.505Z,61.06
2022-10-09T15:31:53.628Z,60.95
2022-10-09T15:36:55.488Z,60.84
2022-10-09T15:41:57.432Z,60.93
2022-10-09T15:46:59.372Z,61.10
2022-10-09T15:52:02.255Z,61.41
2022-10-09T15:57:04.555Z,61.32
2022-10-09T16:02:08.607Z,61.68
2022-10-09T16:07:10.603Z,61.81
2022-10-09T16:12:12.449Z,62.03
2022-10-09T16:17:14.314Z,62.12
2022-10-09T16:22:16.171Z,62.21
2022-10-09T16:27:18.078Z,62.16
2022-10-09T16:32:19.936Z,62.53
2022-10-09T16:37:21.937Z,62.57
2022-10-09T16:42:23.775Z,62.58
2022-10-09T16:47:25.748Z,62.73
2022-10-09T16:52:27.901Z,62.71
2022-10-09T16:57:29.891Z,62.88
2022-10-09T17:02:31.985Z,62.87
2022-10-09T17:07:35.283Z,62.93
2022-10-09T17:12:37.322Z,63.06
2022-10-09T17:17:39.616Z,63.16
2022-10-09T17:22:41.845Z,63.19
2022-10-09T17:27:44.374Z,63.21
2022-10-09T17:32:46.403Z,63.28
2022-10-09T17:37:48.440Z,63.48
2022-10-09T17:42:50.572Z,63.31
2022-10-09T17:47:52.900Z,63.34
2022-10-09T17:52:55.922Z,63.57
2022-10-09T17:57:58.067Z,63.54
2022-10-09T18:02:59.822Z,63.62
2022-10-09T18:08:03.054Z,63.88
2022-10-09T18:13:06.903Z,63.91
2022-10-09T18:18:10.322Z,63.89
2022-10-09T18:23:12.167Z,63.74
2022-10-09T18:28:15.193Z,63.96
2022-10-09T18:33:17.065Z,64.07
2022-10-09T18:38:18.794Z,64.05
2022-10-09T18:43:20.561Z,64.06
2022-10-09T18:48:22.973Z,63.85
2022-10-09T18:53:24.986Z,63.99
2022-10-09T18:58:27.047Z,64.01
2022-10-09T19:03:32.434Z,63.91
2022-10-09T19:08:35.284Z,63.81
2022-10-09T19:13:37.426Z,63.70
2022-10-09T19:18:39.674Z,63.68
2022-10-09T19:23:41.887Z,63.87
2022-10-09T19:28:44.144Z,63.52
2022-10-09T19:33:46.137Z,63.70
2022-10-09T19:38:47.906Z,63.63
2022-10-09T19:43:49.732Z,63.54
2022-10-09T19:48:51.811Z,63.24
2022-10-09T19:53:55.080Z,63.54
2022-10-09T19:58:58.418Z,63.50
2022-10-09T20:09:21.054Z,63.43
2022-10-09T20:14:22.843Z,63.39
2022-10-09T20:19:25.152Z,63.46
2022-10-09T20:24:27.546Z,63.38
2022-10-09T20:29:29.668Z,63.33
2022-10-09T20:34:31.561Z,63.55
2022-10-09T20:39:33.376Z,63.50
2022-10-09T20:44:35.322Z,63.37
2022-10-09T20:49:37.072Z,63.47
2022-10-09T20:54:39.023Z,63.62
2022-10-09T20:59:41.174Z,63.60
2022-10-09T21:04:43.047Z,63.86
2022-10-09T21:09:45.011Z,63.86
2022-10-09T21:14:47.012Z,63.91
2022-10-09T21:19:50.461Z,63.96
2022-10-09T21:24:52.606Z,64.10
2022-10-09T21:29:54.501Z,64.23
2022-10-09T21:34:57.203Z,64.22
2022-10-09T21:39:59.264Z,64.27
2022-10-09T21:45:01.056Z,64.31
2022-10-09T21:50:03.016Z,64.43
2022-10-09T21:55:05.184Z,64.50
2022-10-09T22:00:07.787Z,64.66
2022-10-09T22:05:10.121Z,64.56
2022-10-09T22:10:12.652Z,64.73
2022-10-09T22:15:14.471Z,64.72
2022-10-09T22:20:16.283Z,64.85
2022-10-09T22:25:18.256Z,64.73
2022-10-09T22:30:20.256Z,64.97
2022-10-09T22:35:22.723Z,64.90
2022-10-09T22:40:24.786Z,64.91
2022-10-09T22:45:26.585Z,65.14
2022-10-09T22:50:28.426Z,65.19
2022-10-09T22:55:30.397Z,65.40
2022-10-09T23:00:35.561Z,65.55
2022-10-09T23:05:37.438Z,65.50
2022-10-09T23:10:40.608Z,65.77
2022-10-09T23:15:42.416Z,65.91
2022-10-09T23:20:44.345Z,65.99
2022-10-09T23:25:46.154Z,66.43
2022-10-09T23:30:48.892Z,66.65
2022-10-09T23:35:50.942Z,66.73
2022-10-09T23:41:00.965Z,67.23
2022-10-09T23:46:04.963Z,67.25
2022-10-09T23:51:07.261Z,67.58
2022-10-09T23:56:25.263Z,67.42
